Time;durP1;ratioP1;P1;durP2;ratioP2;P2;SDS_P1;SDS_P2;PMS_P1;PMS_P2;Temp;Humidity;BMP_temperature;BMP_pressure;BME280_temperature;BME280_humidity;BME280_pressure;Samples;Min_cycle;Max_cycle;Signal;HPM_P1;HPM_P2
2022/04/09 00:00:26;;;;;;;13.43;2.63;;;;;;;;;;4998495;28;93662;-76
2022/04/09 00:02:53;;;;;;;17.30;4.15;;;;;;;;;;4993587;28;94548;-76
2022/04/09 00:05:19;;;;;;;13.80;3.10;;;;;;;;;;4993566;28;94134;-77
2022/04/09 00:07:45;;;;;;;16.30;3.22;;;;;;;;;;5001303;28;93249;-77
2022/04/09 00:10:12;;;;;;;18.30;2.97;;;;;;;;;;4997681;28;94134;-77
2022/04/09 00:12:38;;;;;;;11.48;2.58;;;;;;;;;;4996925;28;94425;-77
2022/04/09 00:15:05;;;;;;;17.02;2.63;;;;;;;;;;4995919;28;93830;-77
2022/04/09 00:17:35;;;;;;;15.02;3.25;;;;;;;;;;4997592;28;94599;-77
2022/04/09 00:20:02;;;;;;;11.88;2.83;;;;;;;;;;4999089;28;92583;-77
2022/04/09 00:22:28;;;;;;;11.63;2.67;;;;;;;;;;4999220;28;94862;-77
2022/04/09 00:24:54;;;;;;;16.45;2.60;;;;;;;;;;5000754;28;94722;-77
2022/04/09 00:27:21;;;;;;;17.42;2.92;;;;;;;;;;4997604;28;93312;-77
2022/04/09 00:29:47;;;;;;;12.52;4.28;;;;;;;;;;5000671;28;93413;-77
2022/04/09 00:32:14;;;;;;;7.68;2.35;;;;;;;;;;4993862;28;95036;-77
2022/04/09 00:34:41;;;;;;;11.05;2.60;;;;;;;;;;4993575;28;93806;-77
2022/04/09 00:37:07;;;;;;;20.30;2.92;;;;;;;;;;5002269;28;94288;-77
2022/04/09 00:39:33;;;;;;;11.63;2.72;;;;;;;;;;4991630;28;91811;-78
2022/04/09 00:42:00;;;;;;;18.92;3.00;;;;;;;;;;4999632;28;94905;-77
2022/04/09 00:44:26;;;;;;;7.10;2.38;;;;;;;;;;4988000;28;95203;-77
2022/04/09 00:46:52;;;;;;;8.65;2.28;;;;;;;;;;4993571;28;96479;-77
2022/04/09 00:49:20;;;;;;;13.57;2.65;;;;;;;;;;4991885;28;95234;-77
2022/04/09 00:51:49;;;;;;;20.25;3.58;;;;;;;;;;4997788;28;93811;-77
2022/04/09 00:54:18;;;;;;;6.88;2.53;;;;;;;;;;4989659;28;92784;-77
2022/04/09 00:56:45;;;;;;;11.90;2.65;;;;;;;;;;4996811;28;93635;-77
2022/04/09 00:59:13;;;;;;;10.45;3.08;;;;;;;;;;4997289;28;94325;-77
2022/04/09 01:01:39;;;;;;;12.30;2.38;;;;;;;;;;4996856;28;93577;-78
2022/04/09 01:04:10;;;;;;;13.38;2.97;;;;;;;;;;5005840;28;94737;-77
2022/04/09 01:06:37;;;;;;;7.38;2.60;;;;;;;;;;4998448;28;92491;-77
2022/04/09 01:09:05;;;;;;;22.00;2.80;;;;;;;;;;5000530;28;94539;-77
2022/04/09 01:11:32;;;;;;;16.52;2.65;;;;;;;;;;4993654;28;96412;-77
2022/04/09 01:13:59;;;;;;;7.22;1.92;;;;;;;;;;4992589;28;97358;-77
2022/04/09 01:16:29;;;;;;;8.93;2.63;;;;;;;;;;4991083;28;93960;-77
2022/04/09 01:18:58;;;;;;;12.40;2.60;;;;;;;;;;4994510;28;92964;-78
2022/04/09 01:21:26;;;;;;;10.40;2.25;;;;;;;;;;4997916;28;95964;-78
2022/04/09 01:23:57;;;;;;;6.78;2.55;;;;;;;;;;4992382;28;94480;-77
2022/04/09 01:26:23;;;;;;;8.55;1.88;;;;;;;;;;5014962;27;92747;-77
2022/04/09 01:28:50;;;;;;;11.93;2.42;;;;;;;;;;4998961;28;95763;-78
2022/04/09 01:31:18;;;;;;;14.00;2.85;;;;;;;;;;4998811;28;95098;-77
2022/04/09 01:33:44;;;;;;;14.15;3.83;;;;;;;;;;4989582;28;93094;-77
2022/04/09 01:36:11;;;;;;;11.45;2.55;;;;;;;;;;4995414;28;96594;-77
2022/04/09 01:38:37;;;;;;;7.35;2.20;;;;;;;;;;5000655;28;92621;-77
2022/04/09 01:41:04;;;;;;;11.90;2.88;;;;;;;;;;4999538;28;93486;-77
2022/04/09 01:43:38;;;;;;;7.85;2.17;;;;;;;;;;4993991;28;93581;-77
2022/04/09 01:46:04;;;;;;;12.25;2.45;;;;;;;;;;4997314;28;93238;-77
2022/04/09 01:48:31;;;;;;;10.85;2.13;;;;;;;;;;4988448;28;94604;-77
2022/04/09 01:50:57;;;;;;;16.63;2.40;;;;;;;;;;4995125;28;94425;-76
2022/04/09 01:53:23;;;;;;;4.65;1.70;;;;;;;;;;4997229;28;92793;-77
2022/04/09 01:55:50;;;;;;;9.90;1.98;;;;;;;;;;4990946;28;93572;-76
2022/04/09 01:58:16;;;;;;;11.10;1.77;;;;;;;;;;4990640;28;92528;-77
2022/04/09 02:00:45;;;;;;;8.75;1.95;;;;;;;;;;4988744;28;97566;-77
2022/04/09 02:03:12;;;;;;;11.15;3.17;;;;;;;;;;4992369;28;95269;-77
2022/04/09 02:05:41;;;;;;;9.63;1.98;;;;;;;;;;5001174;28;93181;-77
2022/04/09 02:08:09;;;;;;;9.77;2.25;;;;;;;;;;5000319;28;95511;-77
2022/04/09 02:10:37;;;;;;;12.13;2.85;;;;;;;;;;4997150;28;93296;-77
2022/04/09 02:13:04;;;;;;;10.82;2.80;;;;;;;;;;4997829;28;93110;-77
2022/04/09 02:15:31;;;;;;;13.13;2.67;;;;;;;;;;5015318;28;95066;-77
2022/04/09 02:17:59;;;;;;;10.13;3.13;;;;;;;;;;4998607;28;93325;-77
2022/04/09 02:20:25;;;;;;;10.95;2.47;;;;;;;;;;4998235;28;95057;-77
2022/04/09 02:22:51;;;;;;;9.65;2.85;;;;;;;;;;4993053;28;93033;-78
2022/04/09 02:25:18;;;;;;;6.38;2.55;;;;;;;;;;4996530;28;97514;-77
2022/04/09 02:27:46;;;;;;;13.60;2.53;;;;;;;;;;4993997;28;96177;-77
2022/04/09 02:30:16;;;;;;;7.60;1.73;;;;;;;;;;5013891;28;96156;-77
2022/04/09 02:32:51;;;;;;;8.70;2.30;;;;;;;;;;5010621;28;92544;-77
2022/04/09 02:35:26;;;;;;;10.20;2.05;;;;;;;;;;5017507;28;94998;-77
2022/04/09 02:37:53;;;;;;;11.50;2.10;;;;;;;;;;4993223;28;93865;-77
2022/04/09 02:40:20;;;;;;;15.65;2.88;;;;;;;;;;5016890;28;93966;-77
2022/04/09 02:42:50;;;;;;;10.07;1.98;;;;;;;;;;4995833;28;94391;-77
2022/04/09 02:45:16;;;;;;;8.10;2.17;;;;;;;;;;5005111;28;93433;-78
2022/04/09 02:47:44;;;;;;;11.23;2.72;;;;;;;;;;4994430;28;95006;-78
2022/04/09 02:50:15;;;;;;;12.43;2.53;;;;;;;;;;5009934;28;98510;-78
2022/04/09 02:52:44;;;;;;;17.70;3.17;;;;;;;;;;4996435;28;93930;-78
2022/04/09 02:55:12;;;;;;;11.35;2.35;;;;;;;;;;4998715;28;95653;-78
2022/04/09 02:57:40;;;;;;;8.75;2.13;;;;;;;;;;4992196;28;93015;-78
2022/04/09 03:00:11;;;;;;;8.95;2.00;;;;;;;;;;5011958;28;94870;-78
2022/04/09 03:02:41;;;;;;;8.55;2.13;;;;;;;;;;4993549;28;95678;-78
2022/04/09 03:05:15;;;;;;;8.20;2.22;;;;;;;;;;4994775;28;93841;-78
2022/04/09 03:07:41;;;;;;;6.78;2.05;;;;;;;;;;4997459;28;93982;-78
2022/04/09 03:10:07;;;;;;;10.23;3.67;;;;;;;;;;5012220;28;95782;-78
2022/04/09 03:12:34;;;;;;;10.27;2.28;;;;;;;;;;4993217;28;94430;-78
2022/04/09 03:15:00;;;;;;;11.65;3.10;;;;;;;;;;4995541;28;96704;-78
2022/04/09 03:17:27;;;;;;;13.70;3.08;;;;;;;;;;4994015;28;95223;-77
2022/04/09 03:19:54;;;;;;;12.48;2.67;;;;;;;;;;4997979;28;92661;-78
2022/04/09 03:22:22;;;;;;;6.50;2.40;;;;;;;;;;4992793;28;94284;-78
2022/04/09 03:24:48;;;;;;;8.27;2.40;;;;;;;;;;5002979;28;94767;-78
2022/04/09 03:27:15;;;;;;;17.77;2.65;;;;;;;;;;4997388;28;94769;-78
2022/04/09 03:29:42;;;;;;;10.57;2.70;;;;;;;;;;4995108;28;95141;-78
2022/04/09 03:32:08;;;;;;;18.80;3.45;;;;;;;;;;4994454;28;93665;-78
2022/04/09 03:34:37;;;;;;;15.18;4.13;;;;;;;;;;4998966;28;93328;-78
2022/04/09 03:37:05;;;;;;;8.10;2.72;;;;;;;;;;4999958;28;96031;-78
2022/04/09 03:39:38;;;;;;;15.15;2.88;;;;;;;;;;4992817;28;97116;-77
2022/04/09 03:42:05;;;;;;;28.45;3.85;;;;;;;;;;5024908;27;95328;-78
2022/04/09 03:44:47;;;;;;;14.82;3.28;;;;;;;;;;5019679;27;94768;-78
2022/04/09 03:47:14;;;;;;;17.27;4.10;;;;;;;;;;4990691;28;95980;-78
2022/04/09 03:49:40;;;;;;;26.35;3.58;;;;;;;;;;5001018;28;93307;-78
2022/04/09 03:52:07;;;;;;;12.20;2.53;;;;;;;;;;4993574;28;93772;-78
2022/04/09 03:54:35;;;;;;;10.02;3.50;;;;;;;;;;4997587;28;95338;-78
2022/04/09 03:57:03;;;;;;;4.00;1.52;;;;;;;;;;4994463;28;93410;-78
2022/04/09 03:59:43;;;;;;;12.27;2.80;;;;;;;;;;5004864;28;93022;-78
2022/04/09 04:02:10;;;;;;;8.70;1.77;;;;;;;;;;4999053;28;95480;-77
2022/04/09 04:04:38;;;;;;;5.78;1.77;;;;;;;;;;4994668;28;97987;-78
2022/04/09 04:07:04;;;;;;;3.80;1.50;;;;;;;;;;4996678;28;98564;-78
2022/04/09 04:09:31;;;;;;;9.70;2.08;;;;;;;;;;4995945;28;95417;-78
2022/04/09 04:11:59;;;;;;;13.10;2.00;;;;;;;;;;5013885;28;94483;-78
2022/04/09 04:14:28;;;;;;;5.40;1.88;;;;;;;;;;4994601;28;95049;-78
2022/04/09 04:16:55;;;;;;;6.93;2.08;;;;;;;;;;5002126;28;95551;-78
2022/04/09 04:19:22;;;;;;;10.18;2.97;;;;;;;;;;4994067;28;93984;-77
2022/04/09 04:21:51;;;;;;;12.20;1.85;;;;;;;;;;4999238;28;94849;-78
2022/04/09 04:24:18;;;;;;;5.50;2.13;;;;;;;;;;4997288;28;95288;-77
2022/04/09 04:26:45;;;;;;;8.07;2.65;;;;;;;;;;4997531;28;93965;-78
2022/04/09 04:29:18;;;;;;;5.63;1.65;;;;;;;;;;5021163;27;97063;-78
2022/04/09 04:31:45;;;;;;;4.20;1.85;;;;;;;;;;4996997;28;93535;-78
2022/04/09 04:34:12;;;;;;;11.60;2.88;;;;;;;;;;4999543;28;94656;-78
2022/04/09 04:36:42;;;;;;;20.05;2.97;;;;;;;;;;4997595;28;96134;-78
2022/04/09 04:39:10;;;;;;;17.20;3.15;;;;;;;;;;4991704;28;92581;-77
2022/04/09 04:41:36;;;;;;;10.15;2.70;;;;;;;;;;5010413;28;95436;-78
2022/04/09 04:44:04;;;;;;;9.48;2.67;;;;;;;;;;4992009;28;95491;-78
2022/04/09 04:46:39;;;;;;;7.82;2.95;;;;;;;;;;4997767;28;93384;-78
2022/04/09 04:49:07;;;;;;;8.70;2.55;;;;;;;;;;4999020;28;94064;-78
2022/04/09 04:51:34;;;;;;;10.38;1.98;;;;;;;;;;4993795;28;94124;-78
2022/04/09 04:54:03;;;;;;;10.35;2.20;;;;;;;;;;4990268;28;95978;-78
2022/04/09 04:56:30;;;;;;;11.65;2.60;;;;;;;;;;5001505;28;95389;-78
2022/04/09 04:58:59;;;;;;;4.03;1.67;;;;;;;;;;5010529;28;94041;-79
2022/04/09 05:01:25;;;;;;;6.30;2.30;;;;;;;;;;5019854;28;96044;-78
2022/04/09 05:03:58;;;;;;;9.68;2.10;;;;;;;;;;4996871;28;95428;-78
2022/04/09 05:06:31;;;;;;;7.22;1.88;;;;;;;;;;5000532;28;95288;-78
2022/04/09 05:08:58;;;;;;;5.50;1.63;;;;;;;;;;4995095;28;96040;-78
2022/04/09 05:11:32;;;;;;;7.47;2.17;;;;;;;;;;4993227;28;92582;-78
2022/04/09 05:14:03;;;;;;;14.00;2.55;;;;;;;;;;5003662;28;95228;-78
2022/04/09 05:16:31;;;;;;;6.45;1.77;;;;;;;;;;4996317;28;95885;-78
2022/04/09 05:19:04;;;;;;;11.23;2.30;;;;;;;;;;4991728;28;97403;-78
2022/04/09 05:21:32;;;;;;;10.85;2.97;;;;;;;;;;4994251;28;97781;-78
2022/04/09 05:23:58;;;;;;;6.93;1.83;;;;;;;;;;4994003;28;95771;-78
2022/04/09 05:26:25;;;;;;;3.92;1.63;;;;;;;;;;4995361;28;92763;-78
2022/04/09 05:28:55;;;;;;;9.05;2.55;;;;;;;;;;4993212;28;93863;-79
2022/04/09 05:31:27;;;;;;;12.88;2.33;;;;;;;;;;4990331;28;95701;-79
2022/04/09 05:33:55;;;;;;;6.53;1.85;;;;;;;;;;4991890;28;94215;-79
2022/04/09 05:36:22;;;;;;;11.35;2.83;;;;;;;;;;5000354;28;93262;-76
2022/04/09 05:38:52;;;;;;;10.90;2.67;;;;;;;;;;4992623;28;94377;-77
2022/04/09 05:41:19;;;;;;;7.32;2.55;;;;;;;;;;4995100;28;93971;-78
2022/04/09 05:43:45;;;;;;;21.23;2.95;;;;;;;;;;4991149;28;96849;-78
2022/04/09 05:46:15;;;;;;;14.10;2.75;;;;;;;;;;4997090;28;94623;-77
2022/04/09 05:48:41;;;;;;;13.73;2.17;;;;;;;;;;4989425;28;92897;-78
2022/04/09 05:51:08;;;;;;;10.68;1.95;;;;;;;;;;4992025;28;94807;-77
2022/04/09 05:53:39;;;;;;;12.18;2.10;;;;;;;;;;4996448;28;93679;-77
2022/04/09 05:56:07;;;;;;;8.02;2.83;;;;;;;;;;5009240;28;93243;-77
2022/04/09 05:58:41;;;;;;;5.38;1.67;;;;;;;;;;4994212;28;94423;-78
2022/04/09 06:01:10;;;;;;;;;;;;;;;;;;5007127;28;94993;-78
2022/04/09 06:03:38;;;;;;;4.78;2.05;;;;;;;;;;4997328;28;124331;-78
2022/04/09 06:06:05;;;;;;;12.13;1.92;;;;;;;;;;5001038;28;93131;-78
2022/04/09 06:08:40;;;;;;;7.57;2.42;;;;;;;;;;4996114;28;96293;-78
2022/04/09 06:11:15;;;;;;;8.73;2.72;;;;;;;;;;4991637;28;94713;-78
2022/04/09 06:13:44;;;;;;;5.25;2.03;;;;;;;;;;4992858;28;93774;-78
2022/04/09 06:16:11;;;;;;;13.13;2.70;;;;;;;;;;4994848;28;95325;-78
2022/04/09 06:18:43;;;;;;;10.18;2.50;;;;;;;;;;4995220;28;92649;-78
2022/04/09 06:21:10;;;;;;;8.07;2.20;;;;;;;;;;4999821;28;97409;-78
2022/04/09 06:23:36;;;;;;;8.38;2.20;;;;;;;;;;4997066;28;95423;-78
2022/04/09 06:26:03;;;;;;;10.05;2.85;;;;;;;;;;4994359;28;93694;-78
2022/04/09 06:28:34;;;;;;;9.27;2.65;;;;;;;;;;5007075;28;95145;-74
2022/04/09 06:31:00;;;;;;;10.57;2.28;;;;;;;;;;4996733;28;95708;-76
2022/04/09 06:33:26;;;;;;;5.55;1.95;;;;;;;;;;4993245;28;95082;-76
2022/04/09 06:35:59;;;;;;;12.32;2.05;;;;;;;;;;4998786;28;97552;-76
2022/04/09 06:38:29;;;;;;;6.90;1.95;;;;;;;;;;5020919;27;93111;-76
2022/04/09 06:40:57;;;;;;;2.50;1.27;;;;;;;;;;4995104;28;96020;-75
2022/04/09 06:43:30;;;;;;;6.10;1.85;;;;;;;;;;4998343;28;96128;-76
2022/04/09 06:46:08;;;;;;;6.85;2.10;;;;;;;;;;4994997;28;94960;-76
2022/04/09 06:48:52;;;;;;;9.85;2.85;;;;;;;;;;4998641;28;93504;-76
2022/04/09 06:51:38;;;;;;;6.03;2.00;;;;;;;;;;4997366;28;93547;-75
2022/04/09 06:54:14;;;;;;;8.75;2.22;;;;;;;;;;5000566;28;94737;-76
2022/04/09 06:56:40;;;;;;;4.78;1.60;;;;;;;;;;4994791;28;95554;-76
2022/04/09 06:59:08;;;;;;;3.33;1.92;;;;;;;;;;4995886;28;97674;-76
2022/04/09 07:01:36;;;;;;;6.90;1.40;;;;;;;;;;5007987;28;98333;-76
2022/04/09 07:04:04;;;;;;;5.25;1.33;;;;;;;;;;5009384;28;94656;-76
2022/04/09 07:06:31;;;;;;;6.03;2.00;;;;;;;;;;5000762;28;92919;-77
2022/04/09 07:08:58;;;;;;;4.15;1.73;;;;;;;;;;4989990;28;93715;-77
2022/04/09 07:11:24;;;;;;;12.60;2.03;;;;;;;;;;4998128;28;94296;-76
2022/04/09 07:13:51;;;;;;;5.50;1.80;;;;;;;;;;4988012;28;93615;-78
2022/04/09 07:16:17;;;;;;;6.22;2.38;;;;;;;;;;4991268;28;94276;-75
2022/04/09 07:18:44;;;;;;;10.98;2.05;;;;;;;;;;4983208;28;93591;-77
2022/04/09 07:21:10;;;;;;;8.75;1.70;;;;;;;;;;5012157;28;92639;-76
2022/04/09 07:23:37;;;;;;;8.00;2.63;;;;;;;;;;5013014;28;96592;-75
2022/04/09 07:26:03;;;;;;;8.30;1.85;;;;;;;;;;5012088;28;92829;-76
2022/04/09 07:28:29;;;;;;;7.30;1.73;;;;;;;;;;5007681;28;94472;-76
2022/04/09 07:30:56;;;;;;;4.25;1.73;;;;;;;;;;5006313;28;93348;-76
2022/04/09 07:33:22;;;;;;;8.18;1.65;;;;;;;;;;5009461;28;93959;-75
2022/04/09 07:35:54;;;;;;;8.30;1.60;;;;;;;;;;4994605;28;92946;-76
2022/04/09 07:38:20;;;;;;;8.85;1.80;;;;;;;;;;4993550;28;94144;-76
2022/04/09 07:40:47;;;;;;;6.60;2.10;;;;;;;;;;4993620;28;93205;-76
2022/04/09 07:43:13;;;;;;;4.97;1.33;;;;;;;;;;4992821;28;93241;-76
2022/04/09 07:45:39;;;;;;;5.63;1.55;;;;;;;;;;4992504;28;92546;-76
2022/04/09 07:48:06;;;;;;;1.92;0.85;;;;;;;;;;5001626;28;95576;-76
2022/04/09 07:50:33;;;;;;;3.00;0.90;;;;;;;;;;4986496;28;93188;-76
2022/04/09 07:53:00;;;;;;;2.58;1.00;;;;;;;;;;5004927;28;92603;-76
2022/04/09 07:55:26;;;;;;;10.38;2.03;;;;;;;;;;5000330;28;94041;-76
2022/04/09 07:57:54;;;;;;;4.18;1.20;;;;;;;;;;5008564;28;93596;-79
2022/04/09 08:00:21;;;;;;;4.80;1.40;;;;;;;;;;5013807;28;93378;-77
2022/04/09 08:02:48;;;;;;;1.83;1.40;;;;;;;;;;5011275;28;94203;-76
2022/04/09 08:05:15;;;;;;;9.50;1.80;;;;;;;;;;5016500;28;93509;-77
2022/04/09 08:07:41;;;;;;;5.15;1.75;;;;;;;;;;5003971;28;93557;-77
2022/04/09 08:10:08;;;;;;;5.32;1.50;;;;;;;;;;5014240;28;93235;-76
2022/04/09 08:12:35;;;;;;;10.00;1.30;;;;;;;;;;5010083;28;94895;-75
2022/04/09 08:15:01;;;;;;;8.73;1.52;;;;;;;;;;4996516;28;95320;-75
2022/04/09 08:17:28;;;;;;;6.20;1.77;;;;;;;;;;4993480;28;94116;-74
2022/04/09 08:19:55;;;;;;;2.80;1.27;;;;;;;;;;4994051;28;92873;-75
2022/04/09 08:22:22;;;;;;;2.97;1.25;;;;;;;;;;4995969;28;94271;-75
2022/04/09 08:24:49;;;;;;;7.55;2.08;;;;;;;;;;5010601;28;94118;-75
2022/04/09 08:27:15;;;;;;;4.32;1.67;;;;;;;;;;5008958;28;92563;-76
2022/04/09 08:29:42;;;;;;;4.70;1.67;;;;;;;;;;5012490;28;93316;-76
2022/04/09 08:32:08;;;;;;;10.90;2.50;;;;;;;;;;5014103;28;93081;-76
2022/04/09 08:34:35;;;;;;;8.88;2.03;;;;;;;;;;5004533;28;93060;-75
2022/04/09 08:37:02;;;;;;;6.65;1.90;;;;;;;;;;4990994;28;96601;-77
2022/04/09 08:39:29;;;;;;;12.23;2.88;;;;;;;;;;4997740;28;92892;-76
2022/04/09 08:41:55;;;;;;;7.97;1.63;;;;;;;;;;4982302;28;94020;-76
2022/04/09 08:44:21;;;;;;;5.38;1.60;;;;;;;;;;5009047;28;93420;-77
2022/04/09 08:46:48;;;;;;;9.95;2.03;;;;;;;;;;5014313;28;92538;-76
2022/04/09 08:49:20;;;;;;;4.25;2.22;;;;;;;;;;4996247;28;94564;-76
2022/04/09 08:51:47;;;;;;;5.88;2.03;;;;;;;;;;4999697;28;92669;-76
2022/04/09 08:54:15;;;;;;;4.03;1.52;;;;;;;;;;5000899;28;92651;-76
2022/04/09 08:56:41;;;;;;;6.82;1.85;;;;;;;;;;4995686;28;94057;-76
2022/04/09 08:59:07;;;;;;;8.85;1.73;;;;;;;;;;4994213;28;92833;-76
2022/04/09 09:01:34;;;;;;;14.40;2.15;;;;;;;;;;5011210;28;94877;-76
2022/04/09 09:04:01;;;;;;;6.07;2.10;;;;;;;;;;4997027;28;94033;-76
2022/04/09 09:06:35;;;;;;;12.20;2.15;;;;;;;;;;4992950;28;92588;-76
2022/04/09 09:09:05;;;;;;;4.70;1.60;;;;;;;;;;5005449;28;94002;-76
2022/04/09 09:11:44;;;;;;;4.00;1.63;;;;;;;;;;4995826;28;92666;-76
2022/04/09 09:14:11;;;;;;;2.90;1.10;;;;;;;;;;4999677;28;94169;-76
2022/04/09 09:16:37;;;;;;;4.50;1.10;;;;;;;;;;4976969;28;94144;-76
2022/04/09 09:19:04;;;;;;;3.70;0.98;;;;;;;;;;4993667;28;92436;-77
2022/04/09 09:21:31;;;;;;;2.70;1.35;;;;;;;;;;4997540;28;93614;-76
2022/04/09 09:24:18;;;;;;;3.10;1.38;;;;;;;;;;4993502;28;93943;-76
2022/04/09 09:26:44;;;;;;;5.57;1.42;;;;;;;;;;4986635;28;94894;-77
2022/04/09 09:29:22;;;;;;;1.90;1.30;;;;;;;;;;4992563;28;95544;-76
2022/04/09 09:31:50;;;;;;;5.80;2.17;;;;;;;;;;4997134;28;94345;-79
2022/04/09 09:34:21;;;;;;;6.25;1.98;;;;;;;;;;4990298;28;94405;-75
2022/04/09 09:36:49;;;;;;;4.70;1.60;;;;;;;;;;5002672;28;94228;-76
2022/04/09 09:39:22;;;;;;;4.68;1.10;;;;;;;;;;4997857;28;92976;-79
2022/04/09 09:41:55;;;;;;;3.83;1.48;;;;;;;;;;5012785;28;92799;-76
2022/04/09 09:44:23;;;;;;;4.20;1.55;;;;;;;;;;5000482;28;93741;-77
2022/04/09 09:46:50;;;;;;;8.98;2.30;;;;;;;;;;5012264;28;92947;-76
2022/04/09 09:49:17;;;;;;;4.28;1.05;;;;;;;;;;5011236;28;93043;-75
2022/04/09 09:52:00;;;;;;;6.05;1.92;;;;;;;;;;5009893;28;96607;-76
2022/04/09 09:54:27;;;;;;;5.32;1.70;;;;;;;;;;5010212;28;92450;-76
2022/04/09 09:56:55;;;;;;;5.97;1.85;;;;;;;;;;5012473;28;94176;-75
2022/04/09 09:59:22;;;;;;;5.55;1.55;;;;;;;;;;4998747;28;94842;-75
2022/04/09 10:01:49;;;;;;;4.90;1.55;;;;;;;;;;5013058;28;93880;-76
2022/04/09 10:04:15;;;;;;;10.43;3.53;;;;;;;;;;5007065;28;94223;-75
2022/04/09 10:06:43;;;;;;;2.95;1.50;;;;;;;;;;5009489;28;94475;-75
2022/04/09 10:09:10;;;;;;;2.50;1.30;;;;;;;;;;5004021;28;93942;-76
2022/04/09 10:11:39;;;;;;;8.43;2.00;;;;;;;;;;4973587;28;94222;-76
2022/04/09 10:14:07;;;;;;;5.15;1.75;;;;;;;;;;4972013;28;92766;-76
2022/04/09 10:16:34;;;;;;;7.40;1.73;;;;;;;;;;5005385;28;94872;-76
2022/04/09 10:19:01;;;;;;;6.95;1.90;;;;;;;;;;4998584;28;93044;-77
2022/04/09 10:21:29;;;;;;;4.63;1.85;;;;;;;;;;5009372;28;93865;-77
2022/04/09 10:23:57;;;;;;;12.18;2.30;;;;;;;;;;5012123;28;96065;-76
2022/04/09 10:26:24;;;;;;;11.15;1.77;;;;;;;;;;5009543;28;92590;-77
2022/04/09 10:28:51;;;;;;;9.00;1.85;;;;;;;;;;4993611;28;93868;-76
2022/04/09 10:31:24;;;;;;;6.22;1.88;;;;;;;;;;4986992;28;94230;-76
2022/04/09 10:33:50;;;;;;;;;;;;;;;;;;4999046;28;91722;-76
2022/04/09 10:36:17;;;;;;;7.90;1.40;;;;;;;;;;4986544;28;92409;-76
2022/04/09 10:39:03;;;;;;;4.30;1.27;;;;;;;;;;4986896;28;94262;-76
2022/04/09 10:41:30;;;;;;;3.53;1.20;;;;;;;;;;4991802;28;95525;-76
2022/04/09 10:43:58;;;;;;;1.95;1.33;;;;;;;;;;4990428;28;94556;-76
2022/04/09 10:46:29;;;;;;;4.72;1.20;;;;;;;;;;4987628;28;92962;-76
2022/04/09 10:49:14;;;;;;;2.28;1.23;;;;;;;;;;4996262;28;93631;-76
2022/04/09 10:51:59;;;;;;;1.75;1.13;;;;;;;;;;4999834;28;94641;-76
2022/04/09 10:54:25;;;;;;;3.38;1.25;;;;;;;;;;4994354;28;92583;-76
2022/04/09 10:56:51;;;;;;;5.15;1.52;;;;;;;;;;4994051;28;93941;-75
2022/04/09 10:59:21;;;;;;;5.80;1.77;;;;;;;;;;4987816;28;92444;-76
2022/04/09 11:01:48;;;;;;;2.63;1.50;;;;;;;;;;5003675;28;93666;-76
2022/04/09 11:04:27;;;;;;;5.88;1.20;;;;;;;;;;4985692;28;95162;-76
2022/04/09 11:07:16;;;;;;;5.03;1.60;;;;;;;;;;4983441;28;94891;-76
2022/04/09 11:09:44;;;;;;;2.70;1.10;;;;;;;;;;4990401;28;96324;-76
2022/04/09 11:12:11;;;;;;;5.50;1.25;;;;;;;;;;4994500;28;94396;-76
2022/04/09 11:14:42;;;;;;;4.63;1.40;;;;;;;;;;4988846;28;92408;-76
2022/04/09 11:17:18;;;;;;;4.00;1.52;;;;;;;;;;5000044;28;93810;-77
2022/04/09 11:19:46;;;;;;;5.28;1.60;;;;;;;;;;4996566;28;94175;-76
2022/04/09 11:22:16;;;;;;;6.45;1.77;;;;;;;;;;5002344;28;92525;-76
2022/04/09 11:24:42;;;;;;;7.03;1.75;;;;;;;;;;5002188;28;93341;-76
2022/04/09 11:27:10;;;;;;;7.28;1.50;;;;;;;;;;4993158;28;92397;-76
2022/04/09 11:29:38;;;;;;;3.80;1.10;;;;;;;;;;4989381;28;93978;-76
2022/04/09 11:32:04;;;;;;;1.38;1.05;;;;;;;;;;4990464;28;96596;-76
2022/04/09 11:34:47;;;;;;;3.30;1.17;;;;;;;;;;5001617;28;92948;-76
2022/04/09 11:37:13;;;;;;;6.38;1.15;;;;;;;;;;4984376;28;93928;-75
2022/04/09 11:39:40;;;;;;;2.33;1.05;;;;;;;;;;4982254;28;93104;-76
2022/04/09 11:42:07;;;;;;;2.55;1.38;;;;;;;;;;4993373;28;93463;-76
2022/04/09 11:44:35;;;;;;;3.55;1.50;;;;;;;;;;4994916;28;93994;-76
2022/04/09 11:47:08;;;;;;;5.22;1.42;;;;;;;;;;4995175;28;92455;-76
2022/04/09 11:49:35;;;;;;;4.60;1.50;;;;;;;;;;5002001;28;93257;-75
2022/04/09 11:52:02;;;;;;;3.50;1.48;;;;;;;;;;4990749;28;94135;-77
2022/04/09 11:54:32;;;;;;;5.28;1.27;;;;;;;;;;4984049;28;93414;-76
2022/04/09 11:57:02;;;;;;;3.47;1.13;;;;;;;;;;4984895;28;95040;-76
2022/04/09 11:59:29;;;;;;;4.03;1.45;;;;;;;;;;5000685;28;94139;-78
2022/04/09 12:01:59;;;;;;;5.10;2.20;;;;;;;;;;4992551;28;93019;-75
2022/04/09 12:04:32;;;;;;;4.10;1.33;;;;;;;;;;4985633;28;93151;-80
2022/04/09 12:07:01;;;;;;;4.30;1.60;;;;;;;;;;4997591;28;94573;-77
2022/04/09 12:09:27;;;;;;;7.45;1.83;;;;;;;;;;4982242;28;93082;-80
2022/04/09 12:11:53;;;;;;;7.57;1.75;;;;;;;;;;4991382;28;94829;-82
2022/04/09 12:14:20;;;;;;;4.82;1.50;;;;;;;;;;4990559;28;93681;-80
2022/04/09 12:16:47;;;;;;;3.38;1.30;;;;;;;;;;4988987;28;93568;-75
2022/04/09 12:19:13;;;;;;;5.13;1.70;;;;;;;;;;4979141;28;94837;-77
2022/04/09 12:21:41;;;;;;;5.47;1.50;;;;;;;;;;4990406;28;94895;-74
2022/04/09 12:24:08;;;;;;;7.43;1.98;;;;;;;;;;4999035;28;96228;-75
2022/04/09 12:26:45;;;;;;;8.10;1.90;;;;;;;;;;4993054;28;94188;-74
2022/04/09 12:29:12;;;;;;;8.02;1.98;;;;;;;;;;4997350;28;92441;-76
2022/04/09 12:31:39;;;;;;;3.85;1.60;;;;;;;;;;4997015;28;93248;-76
2022/04/09 12:34:05;;;;;;;9.65;1.70;;;;;;;;;;4994860;28;93294;-75
2022/04/09 12:36:32;;;;;;;7.13;1.70;;;;;;;;;;5008165;28;93672;-76
2022/04/09 12:39:00;;;;;;;4.53;1.63;;;;;;;;;;4993047;28;92628;-76
2022/04/09 12:41:39;;;;;;;3.40;1.65;;;;;;;;;;5000164;28;92470;-76
2022/04/09 12:44:23;;;;;;;11.63;1.90;;;;;;;;;;4996362;28;94157;-76
2022/04/09 12:46:49;;;;;;;1.23;1.05;;;;;;;;;;4994719;28;96458;-76
2022/04/09 12:49:15;;;;;;;3.65;1.63;;;;;;;;;;4993367;28;92978;-76
2022/04/09 12:51:42;;;;;;;3.17;1.63;;;;;;;;;;4993299;28;96640;-76
2022/04/09 12:54:08;;;;;;;2.95;0.85;;;;;;;;;;5003525;28;93548;-76
2022/04/09 12:56:36;;;;;;;3.40;1.08;;;;;;;;;;4996855;28;94101;-74
2022/04/09 12:59:03;;;;;;;4.63;1.70;;;;;;;;;;5010679;28;95407;-74
2022/04/09 13:01:29;;;;;;;6.32;1.50;;;;;;;;;;4999479;28;92993;-74
2022/04/09 13:03:56;;;;;;;5.32;1.70;;;;;;;;;;5003095;28;93701;-75
2022/04/09 13:06:22;;;;;;;1.05;0.90;;;;;;;;;;5003854;28;94819;-74
2022/04/09 13:08:48;;;;;;;3.10;1.10;;;;;;;;;;4994226;28;93150;-74
2022/04/09 13:11:15;;;;;;;2.22;1.10;;;;;;;;;;4992344;28;94896;-75
2022/04/09 13:13:42;;;;;;;2.28;1.17;;;;;;;;;;5005265;28;93211;-75
2022/04/09 13:16:08;;;;;;;1.27;1.17;;;;;;;;;;5007736;28;95407;-74
2022/04/09 13:18:34;;;;;;;2.58;1.10;;;;;;;;;;4994703;28;94291;-75
2022/04/09 13:21:01;;;;;;;5.45;1.55;;;;;;;;;;5001040;28;92533;-74
2022/04/09 13:23:27;;;;;;;4.28;1.10;;;;;;;;;;5001204;28;93520;-74
2022/04/09 13:25:53;;;;;;;5.30;1.30;;;;;;;;;;4995133;28;93479;-73
2022/04/09 13:28:23;;;;;;;3.92;1.30;;;;;;;;;;4985438;28;93031;-74
2022/04/09 13:30:49;;;;;;;1.60;1.30;;;;;;;;;;4986260;28;93124;-74
2022/04/09 13:33:16;;;;;;;1.02;0.90;;;;;;;;;;5002101;28;94222;-74
2022/04/09 13:35:43;;;;;;;1.58;1.10;;;;;;;;;;4971533;28;94872;-74
2022/04/09 13:38:10;;;;;;;3.03;1.10;;;;;;;;;;4990726;28;94620;-70
2022/04/09 13:40:36;;;;;;;1.73;1.05;;;;;;;;;;5006500;28;92470;-73
2022/04/09 13:43:02;;;;;;;1.77;1.08;;;;;;;;;;4995715;28;94685;-76
2022/04/09 13:45:29;;;;;;;7.45;1.55;;;;;;;;;;4991963;28;94275;-79
2022/04/09 13:47:55;;;;;;;3.90;1.50;;;;;;;;;;4993967;28;93192;-73
2022/04/09 13:50:22;;;;;;;2.80;1.30;;;;;;;;;;4989677;28;94572;-74
2022/04/09 13:52:49;;;;;;;19.45;2.95;;;;;;;;;;4992007;28;93395;-72
2022/04/09 13:55:16;;;;;;;9.18;1.98;;;;;;;;;;5008812;28;93508;-72
2022/04/09 13:57:42;;;;;;;13.52;2.33;;;;;;;;;;5007134;28;93350;-72
2022/04/09 14:00:09;;;;;;;4.95;1.75;;;;;;;;;;4985862;28;95771;-71
2022/04/09 14:02:35;;;;;;;8.70;1.77;;;;;;;;;;4989778;28;96435;-71
2022/04/09 14:05:03;;;;;;;6.40;1.90;;;;;;;;;;4981117;28;93414;-70
2022/04/09 14:07:30;;;;;;;7.45;2.50;;;;;;;;;;5002479;28;92500;-72
2022/04/09 14:09:56;;;;;;;8.73;2.15;;;;;;;;;;4997525;28;93612;-71
2022/04/09 14:12:23;;;;;;;10.02;2.40;;;;;;;;;;5005776;28;94250;-72
2022/04/09 14:14:50;;;;;;;6.43;2.00;;;;;;;;;;4997493;28;92428;-72
2022/04/09 14:17:17;;;;;;;12.52;3.10;;;;;;;;;;4997793;28;93657;-71
2022/04/09 14:19:43;;;;;;;8.52;2.50;;;;;;;;;;4989241;28;93827;-71
2022/04/09 14:22:10;;;;;;;6.10;1.65;;;;;;;;;;4995729;28;94752;-72
2022/04/09 14:24:36;;;;;;;5.63;2.03;;;;;;;;;;4996031;28;96883;-71
2022/04/09 14:27:02;;;;;;;8.73;2.05;;;;;;;;;;4994388;28;93452;-71
2022/04/09 14:29:30;;;;;;;7.25;2.30;;;;;;;;;;4993560;28;95248;-71
2022/04/09 14:31:56;;;;;;;16.00;3.13;;;;;;;;;;4991741;28;93473;-71
2022/04/09 14:34:23;;;;;;;5.85;1.75;;;;;;;;;;4991263;28;94039;-71
2022/04/09 14:36:49;;;;;;;13.20;2.42;;;;;;;;;;4992588;28;93893;-72
2022/04/09 14:39:16;;;;;;;10.27;2.30;;;;;;;;;;4995708;28;94154;-72
2022/04/09 14:41:42;;;;;;;11.32;1.88;;;;;;;;;;4991487;28;93981;-72
2022/04/09 14:44:09;;;;;;;7.28;1.83;;;;;;;;;;4990571;28;94716;-72